sensor_id;sensor_type;location;lat;lon;timestamp;temperature;humidity
65864;SHT30;52639;51.180;20.460;2023-01-15T00:02:40;2.79;86.97
65864;SHT30;52639;51.180;20.460;2023-01-15T00:06:43;2.89;86.14
65864;SHT30;52639;51.180;20.460;2023-01-15T00:10:47;2.85;86.35
65864;SHT30;52639;51.180;20.460;2023-01-15T00:14:50;2.77;86.73
65864;SHT30;52639;51.180;20.460;2023-01-15T00:18:54;2.80;86.82
65864;SHT30;52639;51.180;20.460;2023-01-15T00:22:58;2.87;86.23
65864;SHT30;52639;51.180;20.460;2023-01-15T00:27:02;2.93;85.11
65864;SHT30;52639;51.180;20.460;2023-01-15T00:31:23;2.83;85.64
65864;SHT30;52639;51.180;20.460;2023-01-15T00:35:26;2.80;85.31
65864;SHT30;52639;51.180;20.460;2023-01-15T00:39:29;2.66;86.24
65864;SHT30;52639;51.180;20.460;2023-01-15T00:43:33;2.66;86.07
65864;SHT30;52639;51.180;20.460;2023-01-15T00:47:37;2.59;86.57
65864;SHT30;52639;51.180;20.460;2023-01-15T00:51:40;2.60;87.09
65864;SHT30;52639;51.180;20.460;2023-01-15T00:55:43;2.80;85.50
65864;SHT30;52639;51.180;20.460;2023-01-15T00:59:47;2.83;85.88
65864;SHT30;52639;51.180;20.460;2023-01-15T01:03:50;2.86;85.58
65864;SHT30;52639;51.180;20.460;2023-01-15T01:07:53;2.86;86.10
65864;SHT30;52639;51.180;20.460;2023-01-15T01:11:56;3.06;85.69
65864;SHT30;52639;51.180;20.460;2023-01-15T01:16:01;3.06;84.75
65864;SHT30;52639;51.180;20.460;2023-01-15T01:20:05;3.04;85.03
65864;SHT30;52639;51.180;20.460;2023-01-15T01:24:09;3.14;84.35
65864;SHT30;52639;51.180;20.460;2023-01-15T01:28:12;3.16;84.59
65864;SHT30;52639;51.180;20.460;2023-01-15T01:32:20;3.13;85.12
65864;SHT30;52639;51.180;20.460;2023-01-15T01:36:26;3.23;85.09
65864;SHT30;52639;51.180;20.460;2023-01-15T01:40:29;3.21;82.99
65864;SHT30;52639;51.180;20.460;2023-01-15T01:45:02;3.16;84.54
65864;SHT30;52639;51.180;20.460;2023-01-15T01:49:09;3.26;85.11
65864;SHT30;52639;51.180;20.460;2023-01-15T01:53:17;3.37;84.00
65864;SHT30;52639;51.180;20.460;2023-01-15T01:57:23;3.44;82.75
65864;SHT30;52639;51.180;20.460;2023-01-15T02:01:26;3.51;82.17
65864;SHT30;52639;51.180;20.460;2023-01-15T02:05:32;3.60;81.21
65864;SHT30;52639;51.180;20.460;2023-01-15T02:09:35;3.54;81.95
65864;SHT30;52639;51.180;20.460;2023-01-15T02:13:40;3.54;82.08
65864;SHT30;52639;51.180;20.460;2023-01-15T02:17:48;3.44;81.89
65864;SHT30;52639;51.180;20.460;2023-01-15T02:22:01;3.34;82.83
65864;SHT30;52639;51.180;20.460;2023-01-15T02:30:58;3.26;81.73
65864;SHT30;52639;51.180;20.460;2023-01-15T02:35:08;3.41;81.03
65864;SHT30;52639;51.180;20.460;2023-01-15T02:39:14;3.50;81.33
65864;SHT30;52639;51.180;20.460;2023-01-15T02:43:20;3.54;81.50
65864;SHT30;52639;51.180;20.460;2023-01-15T02:47:27;3.64;79.86
65864;SHT30;52639;51.180;20.460;2023-01-15T02:51:36;3.68;82.05
65864;SHT30;52639;51.180;20.460;2023-01-15T02:55:43;3.64;80.14
65864;SHT30;52639;51.180;20.460;2023-01-15T02:59:49;3.70;79.91
65864;SHT30;52639;51.180;20.460;2023-01-15T03:04:01;3.67;80.38
65864;SHT30;52639;51.180;20.460;2023-01-15T03:08:07;3.71;81.43
65864;SHT30;52639;51.180;20.460;2023-01-15T03:12:15;3.74;80.65
65864;SHT30;52639;51.180;20.460;2023-01-15T03:16:24;3.73;80.58
65864;SHT30;52639;51.180;20.460;2023-01-15T03:20:42;3.71;81.93
65864;SHT30;52639;51.180;20.460;2023-01-15T03:24:52;3.68;78.55
65864;SHT30;52639;51.180;20.460;2023-01-15T03:28:55;3.55;81.61
65864;SHT30;52639;51.180;20.460;2023-01-15T03:32:59;3.57;80.04
65864;SHT30;52639;51.180;20.460;2023-01-15T03:37:03;3.44;81.23
65864;SHT30;52639;51.180;20.460;2023-01-15T03:41:13;3.35;82.15
65864;SHT30;52639;51.180;20.460;2023-01-15T03:45:26;3.51;81.28
65864;SHT30;52639;51.180;20.460;2023-01-15T03:49:40;3.47;79.04
65864;SHT30;52639;51.180;20.460;2023-01-15T03:53:48;3.38;81.76
65864;SHT30;52639;51.180;20.460;2023-01-15T03:57:56;3.37;81.20
65864;SHT30;52639;51.180;20.460;2023-01-15T04:02:01;3.43;79.73
65864;SHT30;52639;51.180;20.460;2023-01-15T04:06:06;3.34;80.42
65864;SHT30;52639;51.180;20.460;2023-01-15T04:10:11;3.28;81.64
65864;SHT30;52639;51.180;20.460;2023-01-15T04:14:14;3.41;79.39
65864;SHT30;52639;51.180;20.460;2023-01-15T04:18:17;3.45;79.23
65864;SHT30;52639;51.180;20.460;2023-01-15T04:22:20;3.47;78.83
65864;SHT30;52639;51.180;20.460;2023-01-15T04:26:24;3.35;81.22
65864;SHT30;52639;51.180;20.460;2023-01-15T04:30:27;3.41;79.45
65864;SHT30;52639;51.180;20.460;2023-01-15T04:34:30;3.44;79.03
65864;SHT30;52639;51.180;20.460;2023-01-15T04:38:36;3.37;79.52
65864;SHT30;52639;51.180;20.460;2023-01-15T04:42:41;3.26;79.69
65864;SHT30;52639;51.180;20.460;2023-01-15T04:47:00;3.44;78.56
65864;SHT30;52639;51.180;20.460;2023-01-15T04:51:04;3.47;79.17
65864;SHT30;52639;51.180;20.460;2023-01-15T04:55:07;3.47;79.97
65864;SHT30;52639;51.180;20.460;2023-01-15T04:59:12;3.44;80.21
65864;SHT30;52639;51.180;20.460;2023-01-15T05:03:16;3.44;79.37
65864;SHT30;52639;51.180;20.460;2023-01-15T05:07:19;3.53;77.90
65864;SHT30;52639;51.180;20.460;2023-01-15T05:11:22;3.50;79.35
65864;SHT30;52639;51.180;20.460;2023-01-15T05:15:26;3.55;77.75
65864;SHT30;52639;51.180;20.460;2023-01-15T05:19:29;3.44;79.00
65864;SHT30;52639;51.180;20.460;2023-01-15T05:23:32;3.65;78.32
65864;SHT30;52639;51.180;20.460;2023-01-15T05:27:35;3.67;79.88
65864;SHT30;52639;51.180;20.460;2023-01-15T05:31:40;3.63;78.69
65864;SHT30;52639;51.180;20.460;2023-01-15T05:35:45;3.75;77.18
65864;SHT30;52639;51.180;20.460;2023-01-15T05:39:48;3.75;77.72
65864;SHT30;52639;51.180;20.460;2023-01-15T05:43:51;3.74;79.41
65864;SHT30;52639;51.180;20.460;2023-01-15T05:47:55;3.95;77.97
65864;SHT30;52639;51.180;20.460;2023-01-15T05:51:59;3.89;78.88
65864;SHT30;52639;51.180;20.460;2023-01-15T05:56:03;3.92;79.10
65864;SHT30;52639;51.180;20.460;2023-01-15T06:00:07;3.96;76.84
65864;SHT30;52639;51.180;20.460;2023-01-15T06:04:13;4.06;79.09
65864;SHT30;52639;51.180;20.460;2023-01-15T06:08:15;3.99;78.92
65864;SHT30;52639;51.180;20.460;2023-01-15T06:12:18;4.15;78.09
65864;SHT30;52639;51.180;20.460;2023-01-15T06:16:21;4.23;77.85
65864;SHT30;52639;51.180;20.460;2023-01-15T06:20:25;4.38;77.73
65864;SHT30;52639;51.180;20.460;2023-01-15T06:24:28;4.49;77.10
65864;SHT30;52639;51.180;20.460;2023-01-15T06:28:31;4.54;77.74
65864;SHT30;52639;51.180;20.460;2023-01-15T06:32:34;4.66;76.77
65864;SHT30;52639;51.180;20.460;2023-01-15T06:36:38;4.73;78.27
65864;SHT30;52639;51.180;20.460;2023-01-15T06:40:41;4.85;77.00
65864;SHT30;52639;51.180;20.460;2023-01-15T06:44:44;4.93;77.05
65864;SHT30;52639;51.180;20.460;2023-01-15T06:49:04;4.97;76.12
65864;SHT30;52639;51.180;20.460;2023-01-15T06:53:08;4.95;76.52
65864;SHT30;52639;51.180;20.460;2023-01-15T06:57:11;4.98;77.14
65864;SHT30;52639;51.180;20.460;2023-01-15T07:01:14;5.01;74.63
65864;SHT30;52639;51.180;20.460;2023-01-15T07:05:17;5.07;74.75
65864;SHT30;52639;51.180;20.460;2023-01-15T07:09:22;5.05;76.55
65864;SHT30;52639;51.180;20.460;2023-01-15T07:13:24;5.08;75.43
65864;SHT30;52639;51.180;20.460;2023-01-15T07:17:28;5.10;74.63
65864;SHT30;52639;51.180;20.460;2023-01-15T07:21:31;5.14;76.38
65864;SHT30;52639;51.180;20.460;2023-01-15T07:25:35;5.20;75.74
65864;SHT30;52639;51.180;20.460;2023-01-15T07:29:38;5.25;75.19
65864;SHT30;52639;51.180;20.460;2023-01-15T07:33:41;5.24;75.35
65864;SHT30;52639;51.180;20.460;2023-01-15T07:37:44;5.30;75.24
65864;SHT30;52639;51.180;20.460;2023-01-15T07:41:53;5.30;76.15
65864;SHT30;52639;51.180;20.460;2023-01-15T07:46:13;5.30;74.97
65864;SHT30;52639;51.180;20.460;2023-01-15T07:50:35;5.39;74.70
65864;SHT30;52639;51.180;20.460;2023-01-15T07:54:38;5.41;75.28
65864;SHT30;52639;51.180;20.460;2023-01-15T07:58:42;5.54;74.24
65864;SHT30;52639;51.180;20.460;2023-01-15T08:02:52;5.61;74.27
65864;SHT30;52639;51.180;20.460;2023-01-15T08:06:55;5.68;74.48
65864;SHT30;52639;51.180;20.460;2023-01-15T08:11:00;5.78;74.92
65864;SHT30;52639;51.180;20.460;2023-01-15T08:15:22;5.83;73.32
65864;SHT30;52639;51.180;20.460;2023-01-15T08:19:25;5.91;74.23
65864;SHT30;52639;51.180;20.460;2023-01-15T08:23:30;6.06;74.14
65864;SHT30;52639;51.180;20.460;2023-01-15T08:27:33;6.26;73.60
65864;SHT30;52639;51.180;20.460;2023-01-15T08:31:37;6.34;73.59
65864;SHT30;52639;51.180;20.460;2023-01-15T08:35:41;6.44;72.76
65864;SHT30;52639;51.180;20.460;2023-01-15T08:39:44;6.54;73.05
65864;SHT30;52639;51.180;20.460;2023-01-15T08:43:47;6.61;70.16
65864;SHT30;52639;51.180;20.460;2023-01-15T08:47:53;6.54;72.69
65864;SHT30;52639;51.180;20.460;2023-01-15T08:51:56;6.53;71.01
65864;SHT30;52639;51.180;20.460;2023-01-15T08:55:59;6.47;71.02
65864;SHT30;52639;51.180;20.460;2023-01-15T09:00:03;6.43;73.22
65864;SHT30;52639;51.180;20.460;2023-01-15T09:04:08;6.37;73.10
65864;SHT30;52639;51.180;20.460;2023-01-15T09:08:15;6.34;72.82
65864;SHT30;52639;51.180;20.460;2023-01-15T09:12:17;6.30;71.39
65864;SHT30;52639;51.180;20.460;2023-01-15T09:16:23;6.33;72.03
65864;SHT30;52639;51.180;20.460;2023-01-15T09:20:29;6.36;71.83
65864;SHT30;52639;51.180;20.460;2023-01-15T09:24:33;6.30;72.65
65864;SHT30;52639;51.180;20.460;2023-01-15T09:28:35;6.24;70.57
65864;SHT30;52639;51.180;20.460;2023-01-15T09:32:39;6.24;73.97
65864;SHT30;52639;51.180;20.460;2023-01-15T09:36:43;6.27;74.96
65864;SHT30;52639;51.180;20.460;2023-01-15T09:40:49;6.27;73.85
65864;SHT30;52639;51.180;20.460;2023-01-15T09:45:17;6.27;72.25
65864;SHT30;52639;51.180;20.460;2023-01-15T09:49:33;6.30;75.01
65864;SHT30;52639;51.180;20.460;2023-01-15T09:54:10;6.36;75.10
65864;SHT30;52639;51.180;20.460;2023-01-15T09:58:19;6.47;72.91
65864;SHT30;52639;51.180;20.460;2023-01-15T10:02:26;6.67;72.42
65864;SHT30;52639;51.180;20.460;2023-01-15T10:06:37;6.84;72.89
65864;SHT30;52639;51.180;20.460;2023-01-15T10:10:47;6.95;72.45
65864;SHT30;52639;51.180;20.460;2023-01-15T10:14:57;6.94;73.99
65864;SHT30;52639;51.180;20.460;2023-01-15T10:19:02;6.81;71.91
65864;SHT30;52639;51.180;20.460;2023-01-15T10:23:31;6.66;71.90
65864;SHT30;52639;51.180;20.460;2023-01-15T10:27:38;6.71;72.93
65864;SHT30;52639;51.180;20.460;2023-01-15T10:31:50;6.70;74.75
65864;SHT30;52639;51.180;20.460;2023-01-15T10:35:55;6.57;74.49
65864;SHT30;52639;51.180;20.460;2023-01-15T10:44:50;6.24;75.25
65864;SHT30;52639;51.180;20.460;2023-01-15T10:49:01;6.09;77.23
65864;SHT30;52639;51.180;20.460;2023-01-15T10:53:10;5.99;77.83
65864;SHT30;52639;51.180;20.460;2023-01-15T10:57:22;5.89;78.77
65864;SHT30;52639;51.180;20.460;2023-01-15T11:01:29;5.86;78.89
65864;SHT30;52639;51.180;20.460;2023-01-15T11:05:33;5.93;78.28
65864;SHT30;52639;51.180;20.460;2023-01-15T11:09:38;6.12;77.63
65864;SHT30;52639;51.180;20.460;2023-01-15T11:13:51;6.17;77.71
65864;SHT30;52639;51.180;20.460;2023-01-15T11:18:20;6.30;77.70
65864;SHT30;52639;51.180;20.460;2023-01-15T11:22:44;6.32;76.33
65864;SHT30;52639;51.180;20.460;2023-01-15T11:26:49;6.24;76.87
65864;SHT30;52639;51.180;20.460;2023-01-15T11:30:53;6.16;77.55
65864;SHT30;52639;51.180;20.460;2023-01-15T11:35:02;6.05;78.17
65864;SHT30;52639;51.180;20.460;2023-01-15T11:39:22;5.99;78.31
65864;SHT30;52639;51.180;20.460;2023-01-15T11:43:29;5.85;79.03
65864;SHT30;52639;51.180;20.460;2023-01-15T11:47:50;5.76;80.37
65864;SHT30;52639;51.180;20.460;2023-01-15T11:52:15;5.65;80.68
65864;SHT30;52639;51.180;20.460;2023-01-15T11:56:20;5.59;81.07
65864;SHT30;52639;51.180;20.460;2023-01-15T12:00:26;5.59;82.06
65864;SHT30;52639;51.180;20.460;2023-01-15T12:04:34;5.59;82.71
65864;SHT30;52639;51.180;20.460;2023-01-15T12:08:50;5.66;82.24
65864;SHT30;52639;51.180;20.460;2023-01-15T12:13:01;5.69;82.52
65864;SHT30;52639;51.180;20.460;2023-01-15T12:17:19;5.73;81.80
65864;SHT30;52639;51.180;20.460;2023-01-15T12:21:51;5.86;81.32
65864;SHT30;52639;51.180;20.460;2023-01-15T12:25:57;5.98;80.32
65864;SHT30;52639;51.180;20.460;2023-01-15T12:30:12;6.03;80.79
65864;SHT30;52639;51.180;20.460;2023-01-15T12:34:20;6.07;80.66
65864;SHT30;52639;51.180;20.460;2023-01-15T12:38:36;6.13;79.74
65864;SHT30;52639;51.180;20.460;2023-01-15T12:42:46;6.20;79.99
65864;SHT30;52639;51.180;20.460;2023-01-15T12:47:12;6.29;79.00
65864;SHT30;52639;51.180;20.460;2023-01-15T12:51:21;6.37;78.46
65864;SHT30;52639;51.180;20.460;2023-01-15T12:55:28;6.43;78.39
65864;SHT30;52639;51.180;20.460;2023-01-15T12:59:36;6.44;77.96
65864;SHT30;52639;51.180;20.460;2023-01-15T13:03:50;6.44;78.78
65864;SHT30;52639;51.180;20.460;2023-01-15T13:07:58;6.46;78.18
65864;SHT30;52639;51.180;20.460;2023-01-15T13:12:10;6.41;78.74
65864;SHT30;52639;51.180;20.460;2023-01-15T13:16:19;6.50;76.06
65864;SHT30;52639;51.180;20.460;2023-01-15T13:20:32;6.47;77.92
65864;SHT30;52639;51.180;20.460;2023-01-15T13:24:59;6.44;77.75
65864;SHT30;52639;51.180;20.460;2023-01-15T13:29:11;6.43;77.74
65864;SHT30;52639;51.180;20.460;2023-01-15T13:33:24;6.47;77.34
65864;SHT30;52639;51.180;20.460;2023-01-15T13:37:32;6.50;78.15
65864;SHT30;52639;51.180;20.460;2023-01-15T13:41:36;6.51;77.03
65864;SHT30;52639;51.180;20.460;2023-01-15T13:45:57;6.53;76.13
65864;SHT30;52639;51.180;20.460;2023-01-15T13:50:03;6.57;77.30
65864;SHT30;52639;51.180;20.460;2023-01-15T13:54:13;6.56;77.34
65864;SHT30;52639;51.180;20.460;2023-01-15T13:58:21;6.56;76.03
65864;SHT30;52639;51.180;20.460;2023-01-15T14:02:27;6.58;76.61
65864;SHT30;52639;51.180;20.460;2023-01-15T14:06:39;6.51;75.99
65864;SHT30;52639;51.180;20.460;2023-01-15T14:10:42;6.54;76.30
65864;SHT30;52639;51.180;20.460;2023-01-15T14:15:02;6.57;76.33
65864;SHT30;52639;51.180;20.460;2023-01-15T14:19:38;6.54;77.25
65864;SHT30;52639;51.180;20.460;2023-01-15T14:24:01;6.47;77.11
65864;SHT30;52639;51.180;20.460;2023-01-15T14:28:21;6.38;78.04
65864;SHT30;52639;51.180;20.460;2023-01-15T14:32:43;6.24;79.06
65864;SHT30;52639;51.180;20.460;2023-01-15T14:36:51;6.22;79.20
65864;SHT30;52639;51.180;20.460;2023-01-15T14:40:58;6.22;79.12
65864;SHT30;52639;51.180;20.460;2023-01-15T14:45:06;6.13;79.79
65864;SHT30;52639;51.180;20.460;2023-01-15T14:49:27;6.07;80.16
65864;SHT30;52639;51.180;20.460;2023-01-15T14:53:32;5.98;80.53
65864;SHT30;52639;51.180;20.460;2023-01-15T14:57:41;5.95;80.99
65864;SHT30;52639;51.180;20.460;2023-01-15T15:01:50;5.89;81.50
65864;SHT30;52639;51.180;20.460;2023-01-15T15:05:54;5.83;82.07
65864;SHT30;52639;51.180;20.460;2023-01-15T15:10:00;5.68;82.87
65864;SHT30;52639;51.180;20.460;2023-01-15T15:14:08;5.66;83.60
65864;SHT30;52639;51.180;20.460;2023-01-15T15:18:23;5.71;83.45
65864;SHT30;52639;51.180;20.460;2023-01-15T15:22:30;5.69;83.65
65864;SHT30;52639;51.180;20.460;2023-01-15T15:26:35;5.65;84.03
65864;SHT30;52639;51.180;20.460;2023-01-15T15:30:43;5.59;84.55
65864;SHT30;52639;51.180;20.460;2023-01-15T15:34:50;5.52;84.27
65864;SHT30;52639;51.180;20.460;2023-01-15T15:38:58;5.47;85.45
65864;SHT30;52639;51.180;20.460;2023-01-15T15:43:10;5.34;85.02
65864;SHT30;52639;51.180;20.460;2023-01-15T15:47:39;5.31;86.38
65864;SHT30;52639;51.180;20.460;2023-01-15T15:52:01;5.24;85.89
65864;SHT30;52639;51.180;20.460;2023-01-15T15:56:05;5.23;86.65
65864;SHT30;52639;51.180;20.460;2023-01-15T16:00:17;5.24;86.91
65864;SHT30;52639;51.180;20.460;2023-01-15T16:04:23;5.17;87.70
65864;SHT30;52639;51.180;20.460;2023-01-15T16:08:30;5.04;87.52
65864;SHT30;52639;51.180;20.460;2023-01-15T16:12:35;4.91;89.83
65864;SHT30;52639;51.180;20.460;2023-01-15T16:16:43;4.83;91.74
65864;SHT30;52639;51.180;20.460;2023-01-15T16:20:50;4.72;91.08
65864;SHT30;52639;51.180;20.460;2023-01-15T16:24:56;4.60;88.89
65864;SHT30;52639;51.180;20.460;2023-01-15T16:29:03;4.54;88.54
65864;SHT30;52639;51.180;20.460;2023-01-15T16:33:11;4.50;91.67
65864;SHT30;52639;51.180;20.460;2023-01-15T16:37:25;4.46;90.04
65864;SHT30;52639;51.180;20.460;2023-01-15T16:41:36;4.43;89.87
65864;SHT30;52639;51.180;20.460;2023-01-15T16:45:57;4.39;92.50
65864;SHT30;52639;51.180;20.460;2023-01-15T16:50:33;4.39;91.04
65864;SHT30;52639;51.180;20.460;2023-01-15T16:54:44;4.35;90.57
65864;SHT30;52639;51.180;20.460;2023-01-15T16:58:50;4.32;91.49
65864;SHT30;52639;51.180;20.460;2023-01-15T17:02:53;4.32;90.66
65864;SHT30;52639;51.180;20.460;2023-01-15T17:06:59;4.30;91.25
65864;SHT30;52639;51.180;20.460;2023-01-15T17:11:14;4.28;91.10
65864;SHT30;52639;51.180;20.460;2023-01-15T17:15:45;4.28;90.93
65864;SHT30;52639;51.180;20.460;2023-01-15T17:19:51;4.29;91.01
65864;SHT30;52639;51.180;20.460;2023-01-15T17:23:57;4.25;91.02
65864;SHT30;52639;51.180;20.460;2023-01-15T17:28:04;4.28;89.49
65864;SHT30;52639;51.180;20.460;2023-01-15T17:32:13;4.29;90.36
65864;SHT30;52639;51.180;20.460;2023-01-15T17:36:19;4.26;90.76
65864;SHT30;52639;51.180;20.460;2023-01-15T17:40:25;4.28;90.66
65864;SHT30;52639;51.180;20.460;2023-01-15T17:44:38;4.26;92.82
65864;SHT30;52639;51.180;20.460;2023-01-15T17:48:45;4.26;92.11
65864;SHT30;52639;51.180;20.460;2023-01-15T17:52:50;4.29;92.68
65864;SHT30;52639;51.180;20.460;2023-01-15T17:56:56;4.42;92.89
65864;SHT30;52639;51.180;20.460;2023-01-15T18:01:25;4.48;92.08
65864;SHT30;52639;51.180;20.460;2023-01-15T18:05:47;4.57;94.25
65864;SHT30;52639;51.180;20.460;2023-01-15T18:09:53;4.60;93.37
65864;SHT30;52639;51.180;20.460;2023-01-15T18:13:59;4.60;92.78
65864;SHT30;52639;51.180;20.460;2023-01-15T18:18:06;4.63;91.57
65864;SHT30;52639;51.180;20.460;2023-01-15T18:22:12;4.64;91.62
65864;SHT30;52639;51.180;20.460;2023-01-15T18:26:17;4.63;91.77
65864;SHT30;52639;51.180;20.460;2023-01-15T18:30:30;4.62;93.64
65864;SHT30;52639;51.180;20.460;2023-01-15T18:34:40;4.54;92.53
65864;SHT30;52639;51.180;20.460;2023-01-15T18:38:46;4.46;92.74
65864;SHT30;52639;51.180;20.460;2023-01-15T18:42:52;4.48;92.36
65864;SHT30;52639;51.180;20.460;2023-01-15T18:47:15;4.43;93.85
65864;SHT30;52639;51.180;20.460;2023-01-15T18:51:22;4.39;92.56
65864;SHT30;52639;51.180;20.460;2023-01-15T18:55:33;4.33;92.74
65864;SHT30;52639;51.180;20.460;2023-01-15T18:59:44;4.33;93.23
65864;SHT30;52639;51.180;20.460;2023-01-15T19:03:50;4.30;94.00
65864;SHT30;52639;51.180;20.460;2023-01-15T19:07:59;4.28;92.85
65864;SHT30;52639;51.180;20.460;2023-01-15T19:12:05;4.23;92.72
65864;SHT30;52639;51.180;20.460;2023-01-15T19:16:10;4.23;92.14
65864;SHT30;52639;51.180;20.460;2023-01-15T19:20:33;4.25;92.59
65864;SHT30;52639;51.180;20.460;2023-01-15T19:24:40;4.20;92.04
65864;SHT30;52639;51.180;20.460;2023-01-15T19:28:44;4.20;92.01
65864;SHT30;52639;51.180;20.460;2023-01-15T19:32:50;4.16;93.46
65864;SHT30;52639;51.180;20.460;2023-01-15T19:37:03;4.15;92.81
65864;SHT30;52639;51.180;20.460;2023-01-15T19:41:10;4.08;92.43
65864;SHT30;52639;51.180;20.460;2023-01-15T19:45:32;4.02;92.88
65864;SHT30;52639;51.180;20.460;2023-01-15T19:49:53;3.98;93.03
65864;SHT30;52639;51.180;20.460;2023-01-15T19:54:14;3.98;93.27
65864;SHT30;52639;51.180;20.460;2023-01-15T19:58:40;3.98;93.32
65864;SHT30;52639;51.180;20.460;2023-01-15T20:02:45;3.96;93.37
65864;SHT30;52639;51.180;20.460;2023-01-15T20:06:50;3.98;92.89
65864;SHT30;52639;51.180;20.460;2023-01-15T20:10:56;3.94;92.59
65864;SHT30;52639;51.180;20.460;2023-01-15T20:15:08;3.88;93.03
65864;SHT30;52639;51.180;20.460;2023-01-15T20:19:15;3.85;92.66
65864;SHT30;52639;51.180;20.460;2023-01-15T20:23:20;3.82;92.24
65864;SHT30;52639;51.180;20.460;2023-01-15T20:27:24;3.82;93.68
65864;SHT30;52639;51.180;20.460;2023-01-15T20:31:33;3.78;92.84
65864;SHT30;52639;51.180;20.460;2023-01-15T20:35:38;3.77;93.28
65864;SHT30;52639;51.180;20.460;2023-01-15T20:39:44;3.77;93.54
65864;SHT30;52639;51.180;20.460;2023-01-15T20:43:48;3.75;93.52
65864;SHT30;52639;51.180;20.460;2023-01-15T20:48:11;3.67;92.73
65864;SHT30;52639;51.180;20.460;2023-01-15T20:52:32;3.64;93.79
65864;SHT30;52639;51.180;20.460;2023-01-15T20:56:37;3.60;93.82
65864;SHT30;52639;51.180;20.460;2023-01-15T21:00:40;3.51;93.49
65864;SHT30;52639;51.180;20.460;2023-01-15T21:04:46;3.48;93.00
65864;SHT30;52639;51.180;20.460;2023-01-15T21:08:51;3.45;94.26
65864;SHT30;52639;51.180;20.460;2023-01-15T21:12:55;3.38;93.58
65864;SHT30;52639;51.180;20.460;2023-01-15T21:17:00;3.33;92.75
65864;SHT30;52639;51.180;20.460;2023-01-15T21:21:08;3.30;92.31
65864;SHT30;52639;51.180;20.460;2023-01-15T21:25:12;3.31;93.44
65864;SHT30;52639;51.180;20.460;2023-01-15T21:29:16;3.31;94.25
65864;SHT30;52639;51.180;20.460;2023-01-15T21:33:20;3.26;93.71
65864;SHT30;52639;51.180;20.460;2023-01-15T21:37:25;3.24;93.70
65864;SHT30;52639;51.180;20.460;2023-01-15T21:41:28;3.21;92.97
65864;SHT30;52639;51.180;20.460;2023-01-15T21:45:45;3.21;92.93
65864;SHT30;52639;51.180;20.460;2023-01-15T21:49:48;3.23;92.55
65864;SHT30;52639;51.180;20.460;2023-01-15T21:53:52;3.20;92.22
65864;SHT30;52639;51.180;20.460;2023-01-15T21:57:57;3.21;94.07
65864;SHT30;52639;51.180;20.460;2023-01-15T22:02:01;3.20;93.09
65864;SHT30;52639;51.180;20.460;2023-01-15T22:06:05;3.16;92.75
65864;SHT30;52639;51.180;20.460;2023-01-15T22:10:10;3.16;93.67
65864;SHT30;52639;51.180;20.460;2023-01-15T22:14:15;3.16;93.53
65864;SHT30;52639;51.180;20.460;2023-01-15T22:18:18;3.17;93.34
65864;SHT30;52639;51.180;20.460;2023-01-15T22:22:21;3.19;94.57
65864;SHT30;52639;51.180;20.460;2023-01-15T22:26:32;3.21;93.31
65864;SHT30;52639;51.180;20.460;2023-01-15T22:30:37;3.16;93.02
65864;SHT30;52639;51.180;20.460;2023-01-15T22:34:40;3.19;94.03
65864;SHT30;52639;51.180;20.460;2023-01-15T22:38:43;3.19;93.75
65864;SHT30;52639;51.180;20.460;2023-01-15T22:42:48;3.16;93.58
65864;SHT30;52639;51.180;20.460;2023-01-15T22:46:51;3.11;94.39
65864;SHT30;52639;51.180;20.460;2023-01-15T22:50:54;3.06;93.58
65864;SHT30;52639;51.180;20.460;2023-01-15T22:54:57;3.10;93.22
65864;SHT30;52639;51.180;20.460;2023-01-15T22:59:01;3.14;93.70
65864;SHT30;52639;51.180;20.460;2023-01-15T23:03:04;3.13;93.67
65864;SHT30;52639;51.180;20.460;2023-01-15T23:07:08;3.14;93.29
65864;SHT30;52639;51.180;20.460;2023-01-15T23:11:13;3.16;93.75
65864;SHT30;52639;51.180;20.460;2023-01-15T23:15:18;3.16;93.02
65864;SHT30;52639;51.180;20.460;2023-01-15T23:19:21;3.10;93.08
65864;SHT30;52639;51.180;20.460;2023-01-15T23:23:25;3.06;93.25
65864;SHT30;52639;51.180;20.460;2023-01-15T23:27:28;3.07;93.55
65864;SHT30;52639;51.180;20.460;2023-01-15T23:31:32;3.06;93.00
65864;SHT30;52639;51.180;20.460;2023-01-15T23:35:36;3.04;93.40
65864;SHT30;52639;51.180;20.460;2023-01-15T23:39:38;3.00;93.14
65864;SHT30;52639;51.180;20.460;2023-01-15T23:43:42;3.00;94.46
65864;SHT30;52639;51.180;20.460;2023-01-15T23:48:04;3.00;94.96
65864;SHT30;52639;51.180;20.460;2023-01-15T23:52:07;3.00;94.71
65864;SHT30;52639;51.180;20.460;2023-01-15T23:56:10;2.87;94.02
